createdAt,value
2023-02-22T00:03:26.261Z,8.00
2023-02-22T00:07:27.348Z,7.80
2023-02-22T00:11:28.553Z,7.70
2023-02-22T00:15:29.779Z,7.60
2023-02-22T00:19:31.094Z,7.70
2023-02-22T00:23:32.295Z,7.70
2023-02-22T00:27:33.407Z,7.50
2023-02-22T00:31:36.809Z,7.40
2023-02-22T00:35:38.483Z,7.50
2023-02-22T00:39:39.505Z,7.20
2023-02-22T00:43:40.777Z,7.30
2023-02-22T00:47:41.906Z,7.30
2023-02-22T00:51:42.970Z,6.60
2023-02-22T00:55:44.117Z,7.30
2023-02-22T00:59:45.238Z,7.70
2023-02-22T01:03:46.268Z,7.80
2023-02-22T01:07:48.807Z,7.60
2023-02-22T01:11:54.891Z,7.60
2023-02-22T01:15:56.247Z,7.40
2023-02-22T01:19:57.432Z,7.40
2023-02-22T01:23:58.604Z,6.50
2023-02-22T01:28:00.992Z,7.30
2023-02-22T01:32:05.125Z,7.50
2023-02-22T01:36:08.824Z,7.40
2023-02-22T01:40:16.790Z,7.60
2023-02-22T01:44:32.843Z,7.70
2023-02-22T01:48:37.788Z,7.40
2023-02-22T01:52:38.784Z,7.30
2023-02-22T01:56:44.351Z,7.30
2023-02-22T02:00:45.642Z,7.30
2023-02-22T02:04:48.209Z,7.40
2023-02-22T02:09:02.297Z,7.30
2023-02-22T02:13:03.385Z,7.80
2023-02-22T02:17:06.371Z,8.40
2023-02-22T02:21:26.347Z,8.60
2023-02-22T02:26:03.295Z,8.80
2023-02-22T02:30:20.367Z,9.30
2023-02-22T02:34:36.930Z,9.20
2023-02-22T02:38:50.653Z,9.50
2023-02-22T02:43:07.516Z,9.50
2023-02-22T02:47:20.714Z,9.60
2023-02-22T02:51:25.613Z,9.50
2023-02-22T02:55:29.551Z,9.30
2023-02-22T02:59:33.328Z,9.50
2023-02-22T03:03:47.141Z,9.30
2023-02-22T03:08:13.250Z,9.20
2023-02-22T03:12:21.029Z,9.00
2023-02-22T03:16:29.136Z,9.00
2023-02-22T03:20:48.758Z,9.20
2023-02-22T03:25:08.968Z,9.00
2023-02-22T03:29:12.742Z,9.20
2023-02-22T03:33:35.689Z,9.30
2023-02-22T03:37:43.534Z,9.40
2023-02-22T03:41:50.909Z,9.60
2023-02-22T03:45:52.745Z,9.60
2023-02-22T03:50:14.741Z,9.90
2023-02-22T03:54:16.341Z,10.10
2023-02-22T03:58:21.203Z,10.00
2023-02-22T04:02:23.077Z,10.20
2023-02-22T04:06:24.247Z,9.50
2023-02-22T04:10:25.489Z,10.30
2023-02-22T04:14:28.781Z,10.70
2023-02-22T04:18:29.323Z,10.70
2023-02-22T04:22:30.326Z,10.60
2023-02-22T04:26:31.453Z,10.90
2023-02-22T04:30:32.683Z,11.00
2023-02-22T04:34:33.813Z,10.70
2023-02-22T04:38:34.953Z,10.30
2023-02-22T04:42:37.152Z,10.10
2023-02-22T04:46:38.388Z,10.00
2023-02-22T04:50:40.012Z,8.80
2023-02-22T04:54:41.081Z,9.10
2023-02-22T04:58:42.085Z,8.90
2023-02-22T05:02:43.078Z,8.60
2023-02-22T05:06:44.201Z,8.50
2023-02-22T05:10:45.446Z,8.20
2023-02-22T05:14:46.531Z,8.30
2023-02-22T05:18:47.538Z,7.80
2023-02-22T05:22:48.961Z,8.20
2023-02-22T05:26:50.617Z,8.10
2023-02-22T05:30:51.740Z,7.90
2023-02-22T05:34:52.867Z,7.80
2023-02-22T05:38:54.682Z,7.80
2023-02-22T05:42:56.326Z,7.60
2023-02-22T05:46:57.443Z,7.70
2023-02-22T05:50:58.768Z,7.80
2023-02-22T05:54:59.865Z,7.80
2023-02-22T05:59:00.985Z,7.50
2023-02-22T06:03:04.913Z,7.20
2023-02-22T06:07:06.009Z,6.70
2023-02-22T06:11:09.107Z,6.40
2023-02-22T06:15:10.516Z,6.20
2023-02-22T06:19:11.615Z,6.70
2023-02-22T06:23:12.750Z,6.20
2023-02-22T06:27:14.045Z,6.20
2023-02-22T06:31:15.302Z,7.30
2023-02-22T06:35:17.188Z,7.50
2023-02-22T06:39:18.487Z,7.70
2023-02-22T06:43:19.576Z,7.50
2023-02-22T06:47:21.003Z,7.80
2023-02-22T06:51:22.541Z,7.80
2023-02-22T06:55:28.128Z,8.00
2023-02-22T06:59:29.238Z,8.10
2023-02-22T07:03:30.252Z,8.30
2023-02-22T07:07:31.341Z,8.20
2023-02-22T07:11:32.296Z,8.20
2023-02-22T07:15:34.646Z,8.10
2023-02-22T07:19:35.887Z,8.20
2023-02-22T07:23:37.726Z,8.40
2023-02-22T07:27:41.016Z,8.40
2023-02-22T07:31:42.026Z,8.50
2023-02-22T07:35:46.500Z,8.50
2023-02-22T07:39:47.537Z,8.60
2023-02-22T07:43:48.485Z,8.70
2023-02-22T07:47:49.381Z,9.00
2023-02-22T07:51:50.552Z,9.10
2023-02-22T07:55:52.316Z,9.10
2023-02-22T07:59:53.310Z,9.30
2023-02-22T08:03:55.385Z,9.30
2023-02-22T08:07:56.923Z,9.60
2023-02-22T08:11:58.243Z,9.70
2023-02-22T08:15:59.541Z,10.20
2023-02-22T08:20:01.188Z,10.20
2023-02-22T08:24:02.462Z,10.10
2023-02-22T08:28:06.317Z,10.90
2023-02-22T08:32:07.580Z,11.60
2023-02-22T08:36:09.318Z,10.60
2023-02-22T08:40:12.810Z,11.80
2023-02-22T08:44:13.914Z,11.90
2023-02-22T08:48:15.958Z,12.40
2023-02-22T08:52:17.096Z,12.20
2023-02-22T08:56:18.759Z,13.00
2023-02-22T09:00:23.287Z,13.20
2023-02-22T09:04:24.368Z,13.30
2023-02-22T09:08:25.611Z,13.40
2023-02-22T09:12:26.696Z,13.40
2023-02-22T09:16:28.641Z,13.40
2023-02-22T09:20:30.432Z,13.70
2023-02-22T09:24:31.505Z,12.70
2023-02-22T09:28:32.643Z,11.40
2023-02-22T09:32:33.850Z,12.60
2023-02-22T09:36:35.028Z,13.20
2023-02-22T09:40:43.818Z,13.90
2023-02-22T09:44:57.688Z,13.70
2023-02-22T09:49:17.530Z,13.70
2023-02-22T09:53:27.528Z,13.90
2023-02-22T09:57:32.593Z,14.40
2023-02-22T10:01:43.470Z,13.50
2023-02-22T10:05:56.030Z,13.00
2023-02-22T10:09:58.339Z,12.70
2023-02-22T10:14:03.150Z,12.80
2023-02-22T10:18:23.270Z,12.30
2023-02-22T10:22:46.477Z,13.30
2023-02-22T10:26:48.140Z,13.50
2023-02-22T10:30:55.155Z,13.90
2023-02-22T10:34:59.950Z,14.70
2023-02-22T10:39:27.739Z,14.20
2023-02-22T10:43:29.527Z,14.60
2023-02-22T10:47:30.641Z,12.30
2023-02-22T10:51:32.265Z,13.00
2023-02-22T10:55:33.961Z,14.80
2023-02-22T10:59:37.859Z,12.80
2023-02-22T11:03:39.190Z,13.20
2023-02-22T11:07:42.193Z,14.70
2023-02-22T11:11:46.582Z,15.20
2023-02-22T11:15:47.667Z,14.10
2023-02-22T11:19:49.850Z,15.30
2023-02-22T11:23:54.751Z,15.10
2023-02-22T11:28:00.374Z,15.20
2023-02-22T11:32:14.598Z,15.40
2023-02-22T11:36:19.660Z,15.80
2023-02-22T11:40:22.577Z,16.80
2023-02-22T11:44:27.044Z,16.10
2023-02-22T11:48:31.598Z,16.20
2023-02-22T11:52:36.701Z,15.50
2023-02-22T11:56:47.327Z,16.20
2023-02-22T12:00:58.128Z,16.90
2023-02-22T12:05:07.516Z,16.20
2023-02-22T12:09:15.149Z,16.40
2023-02-22T12:13:32.275Z,15.90
2023-02-22T12:17:48.217Z,16.10
2023-02-22T12:21:51.394Z,17.20
2023-02-22T12:26:00.224Z,16.90
2023-02-22T12:30:05.322Z,17.60
2023-02-22T12:34:26.809Z,17.30
2023-02-22T12:38:39.701Z,18.10
2023-02-22T12:42:56.820Z,18.30
2023-02-22T12:47:00.122Z,17.70
2023-02-22T12:51:28.755Z,18.60
2023-02-22T12:55:45.597Z,18.20
2023-02-22T12:59:50.620Z,17.00
2023-02-22T13:03:53.672Z,18.30
2023-02-22T13:08:18.497Z,18.00
2023-02-22T13:12:32.388Z,17.80
2023-02-22T13:16:51.199Z,17.00
2023-02-22T13:20:57.147Z,17.80
2023-02-22T13:25:17.401Z,17.20
2023-02-22T13:29:22.551Z,17.20
2023-02-22T13:33:33.581Z,17.70
2023-02-22T13:38:10.437Z,17.90
2023-02-22T13:42:15.627Z,17.10
2023-02-22T13:46:40.279Z,17.90
2023-02-22T13:51:00.330Z,17.60
2023-02-22T13:55:06.655Z,17.10
2023-02-22T13:59:12.211Z,17.60
2023-02-22T14:03:17.242Z,16.50
2023-02-22T14:07:25.336Z,16.20
2023-02-22T14:11:36.415Z,16.10
2023-02-22T14:15:49.794Z,16.30
2023-02-22T14:20:18.431Z,16.50
2023-02-22T14:24:19.526Z,15.90
2023-02-22T14:28:45.594Z,16.50
2023-02-22T14:32:48.580Z,17.30
2023-02-22T14:37:10.081Z,15.90
2023-02-22T14:41:14.275Z,15.90
2023-02-22T14:45:29.909Z,16.30
2023-02-22T14:49:35.350Z,15.70
2023-02-22T14:53:39.574Z,15.40
2023-02-22T14:57:51.603Z,15.50
2023-02-22T15:02:13.341Z,15.80
2023-02-22T15:06:18.091Z,15.70
2023-02-22T15:10:23.386Z,15.90
2023-02-22T15:14:26.731Z,15.90
2023-02-22T15:18:32.138Z,16.60
2023-02-22T15:22:36.128Z,16.20
2023-02-22T15:26:52.002Z,16.30
2023-02-22T15:30:45.068Z,16.00
2023-02-22T15:34:46.376Z,16.80
2023-02-22T15:38:49.896Z,16.90
2023-02-22T15:42:53.076Z,16.30
2023-02-22T15:46:56.247Z,16.10
2023-02-22T15:51:08.523Z,15.50
2023-02-22T15:55:10.634Z,16.40
2023-02-22T15:59:14.631Z,15.70
2023-02-22T16:03:19.738Z,16.00
2023-02-22T16:07:23.593Z,16.40
2023-02-22T16:11:33.654Z,16.30
2023-02-22T16:15:35.334Z,15.10
2023-02-22T16:19:42.632Z,15.70
2023-02-22T16:23:49.620Z,15.60
2023-02-22T16:28:00.932Z,15.70
2023-02-22T16:32:03.160Z,15.50
2023-02-22T16:36:07.300Z,15.30
2023-02-22T16:40:15.598Z,14.50
2023-02-22T16:44:17.539Z,13.90
2023-02-22T16:48:24.396Z,14.00
2023-02-22T16:52:27.521Z,14.30
2023-02-22T16:56:31.171Z,14.80
2023-02-22T17:00:35.990Z,14.90
2023-02-22T17:04:37.164Z,14.90
2023-02-22T17:08:40.769Z,14.50
2023-02-22T17:12:44.665Z,14.00
2023-02-22T17:16:48.419Z,14.40
2023-02-22T17:20:50.796Z,15.10
2023-02-22T17:24:52.142Z,15.20
2023-02-22T17:28:53.415Z,15.00
2023-02-22T17:32:56.371Z,15.20
2023-02-22T17:36:57.852Z,15.20
2023-02-22T17:41:00.752Z,15.00
2023-02-22T17:45:01.957Z,14.70
2023-02-22T17:49:03.152Z,14.60
2023-02-22T17:53:04.854Z,14.80
2023-02-22T17:57:06.506Z,14.40
2023-02-22T18:01:29.329Z,14.30
2023-02-22T18:05:32.378Z,14.40
2023-02-22T18:09:41.258Z,14.60
2023-02-22T18:13:42.340Z,14.30
2023-02-22T18:17:45.008Z,14.80
2023-02-22T18:21:46.051Z,15.00
2023-02-22T18:26:00.240Z,14.60
2023-02-22T18:29:51.809Z,14.10
2023-02-22T18:33:53.035Z,14.50
2023-02-22T18:37:54.280Z,14.80
2023-02-22T18:41:56.019Z,14.90
2023-02-22T18:46:12.220Z,14.80
2023-02-22T18:50:16.111Z,14.60
2023-02-22T18:54:19.323Z,14.70
2023-02-22T18:58:20.556Z,14.80
2023-02-22T19:02:22.471Z,14.30
2023-02-22T19:06:24.330Z,14.40
2023-02-22T19:10:25.801Z,14.40
2023-02-22T19:14:27.073Z,14.30
2023-02-22T19:18:28.220Z,14.10
2023-02-22T19:22:31.279Z,14.20
2023-02-22T19:26:32.392Z,14.40
2023-02-22T19:30:33.457Z,12.90
2023-02-22T19:34:36.352Z,13.40
2023-02-22T19:38:38.267Z,13.80
2023-02-22T19:42:39.343Z,13.90
2023-02-22T19:46:40.711Z,14.10
2023-02-22T19:50:44.319Z,14.00
2023-02-22T19:54:45.521Z,13.60
2023-02-22T19:58:49.395Z,13.60
2023-02-22T20:03:00.721Z,13.50
2023-02-22T20:07:01.899Z,13.40
2023-02-22T20:11:04.103Z,13.50
2023-02-22T20:15:06.235Z,13.30
2023-02-22T20:19:07.413Z,13.20
2023-02-22T20:23:09.158Z,13.20
2023-02-22T20:27:12.616Z,13.30
2023-02-22T20:31:14.810Z,13.30
2023-02-22T20:35:16.498Z,13.30
2023-02-22T20:39:17.723Z,13.00
2023-02-22T20:43:19.031Z,13.00
2023-02-22T20:47:20.767Z,13.00
2023-02-22T20:51:22.608Z,13.00
2023-02-22T20:55:24.708Z,12.70
2023-02-22T20:59:28.385Z,12.80
2023-02-22T21:03:34.531Z,12.80
2023-02-22T21:07:35.662Z,12.90
2023-02-22T21:11:38.316Z,12.70
2023-02-22T21:15:43.101Z,12.50
2023-02-22T21:19:44.687Z,12.70
2023-02-22T21:23:49.407Z,12.70
2023-02-22T21:27:52.018Z,12.60
2023-02-22T21:31:54.165Z,12.60
2023-02-22T21:35:55.462Z,12.70
2023-02-22T21:39:58.573Z,12.50
2023-02-22T21:44:00.267Z,12.60
2023-02-22T21:48:02.009Z,12.80
2023-02-22T21:52:03.980Z,12.70
2023-02-22T21:56:05.971Z,12.90
2023-02-22T22:00:14.671Z,12.80
2023-02-22T22:04:22.913Z,12.60
2023-02-22T22:08:24.479Z,12.50
2023-02-22T22:12:37.429Z,12.30
2023-02-22T22:16:30.404Z,12.70
2023-02-22T22:20:33.405Z,12.60
2023-02-22T22:24:34.933Z,12.60
2023-02-22T22:28:38.137Z,12.60
2023-02-22T22:32:39.689Z,12.60
2023-02-22T22:36:41.243Z,12.40
2023-02-22T22:40:43.553Z,12.60
2023-02-22T22:44:46.613Z,12.60
2023-02-22T22:48:47.734Z,12.40
2023-02-22T22:52:48.700Z,12.60
2023-02-22T22:56:49.805Z,12.10
2023-02-22T23:00:52.825Z,12.60
2023-02-22T23:04:53.945Z,12.70
2023-02-22T23:08:59.460Z,12.70
2023-02-22T23:13:00.539Z,13.00
2023-02-22T23:17:04.866Z,12.80
2023-02-22T23:21:05.998Z,12.80
2023-02-22T23:25:08.083Z,13.20
2023-02-22T23:29:09.199Z,13.40
2023-02-22T23:33:10.184Z,13.60
2023-02-22T23:37:13.040Z,13.70
2023-02-22T23:41:18.792Z,13.80
2023-02-22T23:45:24.285Z,13.60
2023-02-22T23:49:26.907Z,13.40
2023-02-22T23:53:29.460Z,13.40
2023-02-22T23:57:32.101Z,12.60
